Accueil
METAR-TAF:

METAR-TAF

Aéroports :

Aéroport international de Koweït

Koweït, Koweït

latitude: 29-13N, longitude: 047-59E, altitude: 55 m

Observation

Le bulletin a été fait il y a 25 minutes, à 19:00 UTC
Vent 4 kt de sud/sud-est
Température 26°C
Humidité 79%
Pression 1014 hPa
Visibilité: 6000 m

METAR: OKBK 191900Z 15004KT 6000 NSC 26/22 Q1014 NOSIG

Heure: 22:25 (19:25 UTC)

Prévision

Le bulletin a été fait il y a 2 heures et 40 minutes, à 16:45 UTC
Prévision valable du 19 à 18 UTC au 20 à 24 UTC
Vent 10 kt de sud/sud-ouest
Visibilité: 6000 m
Temporairement
du 19 à 20 UTC au 20 à 04 UTC
Vent 3 kt de direction variable
Visibilité: 3000 m
brume

TAF: OKBK 191645Z 1918/2024 21010KT 6000 NSC TEMPO 1920/2004 VRB03KT 3000 BR

Observations et prévisions météorologiques de plus de 4000 aéroports (messages METAR et TAF).

Les stations disponibles sont représentées par des disques jaunes et rouges sur la carte.

Passer la souris dessus pour voir le nom de la station.

Cliquer dessus pour voir les observations et prévisions météorologiques.

Pour changer de carte: cliquez sur les boutons verts avec une croix noire pour zoomer, sur le bouton vert avec un tiret pour effectuer un zoom arrière, ou sur les flèches vertes pour les cartes adjacentes.


METAR-TAF: